Time;durP1;ratioP1;P1;durP2;ratioP2;P2;SDS_P1;SDS_P2;PMS_P1;PMS_P2;Temp;Humidity;BMP_temperature;BMP_pressure;BME280_temperature;BME280_humidity;BME280_pressure;Samples;Min_cycle;Max_cycle;Signal;HPM_P1;HPM_P2
2021/12/24 00:00:30;;;;;;;16.17;11.97;;;;;;;;;;5050124;28;20200;-57
2021/12/24 00:02:56;;;;;;;15.97;11.27;;;;;;;;;;5069507;28;20271;-58
2021/12/24 00:05:26;;;;;;;20.53;12.70;;;;;;;;;;5073748;28;20260;-58
2021/12/24 00:07:52;;;;;;;16.57;12.83;;;;;;;;;;5079697;28;20177;-58
2021/12/24 00:10:19;;;;;;;15.30;11.27;;;;;;;;;;5069920;28;20180;-58
2021/12/24 00:12:54;;;;;;;13.77;10.67;;;;;;;;;;5050165;28;20184;-58
2021/12/24 00:18:08;;;;;;;15.10;10.83;;;;;;;;;;5075467;28;20475;-58
2021/12/24 00:35:07;;;;;;;15.07;11.47;;;;;;;;;;5079120;28;20239;-58
2021/12/24 00:36:49;;;;;;;15.60;10.37;;;;;;;;;;5072184;28;20268;-58
2021/12/24 00:39:15;;;;;;;12.47;9.63;;;;;;;;;;5050506;28;20657;-58
2021/12/24 00:41:42;;;;;;;11.60;9.47;;;;;;;;;;5071592;28;20180;-57
2021/12/24 00:44:08;;;;;;;11.67;9.30;;;;;;;;;;5059952;28;20183;-58
2021/12/24 00:46:35;;;;;;;14.23;10.20;;;;;;;;;;5061507;28;20235;-58
2021/12/24 00:49:01;;;;;;;13.40;10.20;;;;;;;;;;5060303;28;20194;-58
2021/12/24 00:51:53;;;;;;;11.53;8.87;;;;;;;;;;5068782;28;20756;-58
2021/12/24 00:57:03;;;;;;;11.57;8.77;;;;;;;;;;5066972;28;20272;-58
2021/12/24 00:59:29;;;;;;;13.47;9.47;;;;;;;;;;5062677;28;20189;-58
2021/12/24 01:01:56;;;;;;;10.63;8.60;;;;;;;;;;5065712;28;20267;-58
2021/12/24 01:04:22;;;;;;;10.70;8.83;;;;;;;;;;5043211;28;20278;-58
2021/12/24 01:06:48;;;;;;;11.60;7.73;;;;;;;;;;5049589;28;20249;-59
2021/12/24 01:09:15;;;;;;;13.60;9.80;;;;;;;;;;5065557;28;20260;-57
2021/12/24 01:11:41;;;;;;;11.67;8.87;;;;;;;;;;5049357;28;20181;-57
2021/12/24 01:14:08;;;;;;;12.67;9.07;;;;;;;;;;5065478;28;20627;-57
2021/12/24 01:16:51;;;;;;;11.83;8.97;;;;;;;;;;5066403;28;20603;-57
2021/12/24 01:19:22;;;;;;;10.30;8.00;;;;;;;;;;5060969;28;20655;-58
2021/12/24 01:24:44;;;;;;;10.20;8.73;;;;;;;;;;5066423;28;20603;-57
2021/12/24 01:27:38;;;;;;;11.27;8.63;;;;;;;;;;5050759;28;20165;-57
2021/12/24 01:39:07;;;;;;;11.83;8.70;;;;;;;;;;5069163;28;20260;-57
2021/12/24 01:41:19;;;;;;;11.73;7.73;;;;;;;;;;5044322;28;20192;-57
2021/12/24 01:43:45;;;;;;;9.67;8.00;;;;;;;;;;5070471;28;20275;-56
2021/12/24 01:46:14;;;;;;;11.57;8.13;;;;;;;;;;5068003;28;20301;-57
2021/12/24 01:48:42;;;;;;;10.50;8.00;;;;;;;;;;5068105;28;20275;-57
2021/12/24 01:51:12;;;;;;;11.77;8.23;;;;;;;;;;5071738;28;20204;-62
2021/12/24 01:53:41;;;;;;;10.63;8.27;;;;;;;;;;5069580;28;20647;-58
2021/12/24 01:56:08;;;;;;;10.47;8.30;;;;;;;;;;5069678;28;20200;-57
2021/12/24 01:58:34;;;;;;;10.17;8.60;;;;;;;;;;5089077;28;20185;-58
2021/12/24 02:01:01;;;;;;;12.97;8.27;;;;;;;;;;5085353;28;20191;-58
2021/12/24 02:03:27;;;;;;;11.00;9.17;;;;;;;;;;5067050;28;20187;-57
2021/12/24 02:05:56;;;;;;;10.43;8.13;;;;;;;;;;5064856;28;20278;-57
2021/12/24 02:08:22;;;;;;;10.77;8.53;;;;;;;;;;5066372;28;20682;-58
2021/12/24 02:10:52;;;;;;;10.53;9.43;;;;;;;;;;5085771;28;20283;-57
2021/12/24 02:13:22;;;;;;;11.13;8.90;;;;;;;;;;5068176;28;20536;-58
2021/12/24 02:28:17;;;;;;;10.67;9.57;;;;;;;;;;5065590;28;20164;-58
2021/12/24 02:30:00;;;;;;;10.90;9.13;;;;;;;;;;5068292;28;20233;-58
2021/12/24 02:32:27;;;;;;;13.23;10.03;;;;;;;;;;5076534;28;20710;-56
2021/12/24 02:34:53;;;;;;;12.57;10.57;;;;;;;;;;5068202;28;20673;-58
2021/12/24 02:37:19;;;;;;;12.60;9.37;;;;;;;;;;5069975;28;20269;-58
2021/12/24 02:39:46;;;;;;;14.77;10.60;;;;;;;;;;5067340;28;20397;-56
2021/12/24 02:42:22;;;;;;;12.67;10.20;;;;;;;;;;5066695;28;20654;-56
2021/12/24 02:44:50;;;;;;;11.67;10.07;;;;;;;;;;5065300;28;20204;-56
2021/12/24 02:55:03;;;;;;;14.73;11.13;;;;;;;;;;5083746;28;20203;-58
2021/12/24 02:57:31;;;;;;;17.37;10.17;;;;;;;;;;5069657;28;20655;-57
2021/12/24 03:00:13;;;;;;;16.30;11.63;;;;;;;;;;5076821;28;20177;-58
2021/12/24 03:02:40;;;;;;;19.23;10.60;;;;;;;;;;5051048;28;20192;-57
2021/12/24 03:05:07;;;;;;;16.77;11.87;;;;;;;;;;5040874;28;20291;-57
2021/12/24 03:07:33;;;;;;;25.70;10.23;;;;;;;;;;5082036;28;20176;-56
2021/12/24 03:10:00;;;;;;;17.53;11.57;;;;;;;;;;5084080;28;20184;-57
2021/12/24 03:12:28;;;;;;;13.97;11.63;;;;;;;;;;5082182;28;20582;-57
2021/12/24 03:14:54;;;;;;;13.07;10.80;;;;;;;;;;5062975;28;20172;-57
2021/12/24 03:17:24;;;;;;;16.23;12.20;;;;;;;;;;5071919;28;20191;-58
2021/12/24 03:19:52;;;;;;;14.47;11.17;;;;;;;;;;5049939;28;20695;-57
2021/12/24 03:22:46;;;;;;;13.83;11.07;;;;;;;;;;5074522;28;20221;-57
2021/12/24 03:25:13;;;;;;;14.97;12.37;;;;;;;;;;5056734;28;20250;-58
2021/12/24 03:27:39;;;;;;;20.70;13.47;;;;;;;;;;5050846;28;20186;-57
2021/12/24 03:30:06;;;;;;;19.43;12.23;;;;;;;;;;5067782;28;20190;-57
2021/12/24 03:32:32;;;;;;;15.47;12.37;;;;;;;;;;5080722;28;20695;-58
2021/12/24 03:34:59;;;;;;;19.03;13.93;;;;;;;;;;5064768;28;20180;-57
2021/12/24 03:37:25;;;;;;;15.77;12.97;;;;;;;;;;5081898;28;20444;-58
2021/12/24 03:40:00;;;;;;;18.47;12.60;;;;;;;;;;5081671;28;20253;-57
2021/12/24 03:42:26;;;;;;;19.70;13.47;;;;;;;;;;5050815;28;20218;-57
2021/12/24 03:45:03;;;;;;;20.53;13.33;;;;;;;;;;5051194;28;20200;-57
2021/12/24 03:47:35;;;;;;;15.87;12.17;;;;;;;;;;5078613;28;20190;-57
2021/12/24 03:50:07;;;;;;;19.67;13.93;;;;;;;;;;5071058;28;20632;-57
2021/12/24 03:53:02;;;;;;;18.53;13.23;;;;;;;;;;5076790;28;20292;-57
2021/12/24 03:55:26;;;;;;;19.90;12.70;;;;;;;;;;5072856;28;20674;-57
2021/12/24 03:57:52;;;;;;;18.63;13.40;;;;;;;;;;5071273;28;20203;-57
2021/12/24 04:00:20;;;;;;;20.07;14.80;;;;;;;;;;5066456;28;20453;-57
2021/12/24 04:02:47;;;;;;;19.20;15.03;;;;;;;;;;5076500;28;20336;-58
2021/12/24 04:05:13;;;;;;;18.13;14.30;;;;;;;;;;5061861;28;20227;-57
2021/12/24 04:07:40;;;;;;;18.20;13.70;;;;;;;;;;5072998;28;20172;-57
2021/12/24 04:10:40;;;;;;;19.83;14.30;;;;;;;;;;5075498;28;20422;-58
2021/12/24 04:12:59;;;;;;;24.47;15.20;;;;;;;;;;5060836;28;20523;-57
2021/12/24 04:15:25;;;;;;;20.60;13.97;;;;;;;;;;5067572;28;20530;-58
2021/12/24 04:17:52;;;;;;;19.73;14.63;;;;;;;;;;5050757;28;20614;-58
2021/12/24 04:25:48;;;;;;;19.00;14.33;;;;;;;;;;5074240;28;20573;-54
2021/12/24 04:28:15;;;;;;;17.90;13.57;;;;;;;;;;5067509;28;20177;-58
2021/12/24 04:30:47;;;;;;;21.70;14.27;;;;;;;;;;5074865;28;20187;-58
2021/12/24 04:33:27;;;;;;;19.73;13.93;;;;;;;;;;5067566;28;20156;-57
2021/12/24 04:37:10;;;;;;;18.60;14.57;;;;;;;;;;5068783;28;20625;-57
2021/12/24 05:03:44;;;;;;;19.80;14.93;;;;;;;;;;5067850;28;20217;-58
2021/12/24 05:06:31;;;;;;;19.37;14.70;;;;;;;;;;5069560;28;20266;-57
2021/12/24 05:09:05;;;;;;;19.60;14.40;;;;;;;;;;5068990;28;20271;-57
2021/12/24 05:11:35;;;;;;;21.07;14.23;;;;;;;;;;5068340;28;20181;-57
2021/12/24 05:14:01;;;;;;;19.60;14.53;;;;;;;;;;5066966;28;20191;-57
2021/12/24 05:16:52;;;;;;;21.30;14.27;;;;;;;;;;5067032;28;20188;-57
2021/12/24 05:22:03;;;;;;;19.53;14.33;;;;;;;;;;5067324;28;20668;-58
2021/12/24 05:24:30;;;;;;;20.37;14.27;;;;;;;;;;5069241;28;20181;-57
2021/12/24 05:26:58;;;;;;;19.67;14.30;;;;;;;;;;5067375;28;20208;-58
2021/12/24 05:29:24;;;;;;;23.40;14.83;;;;;;;;;;5061839;28;20185;-57
2021/12/24 05:31:51;;;;;;;20.53;15.27;;;;;;;;;;5064839;28;20180;-57
2021/12/24 05:34:18;;;;;;;20.30;14.53;;;;;;;;;;5065284;28;20181;-58
2021/12/24 05:36:48;;;;;;;22.03;15.80;;;;;;;;;;5068679;28;20177;-57
2021/12/24 05:39:16;;;;;;;22.47;14.90;;;;;;;;;;5067381;28;20180;-57
2021/12/24 05:41:42;;;;;;;23.60;15.90;;;;;;;;;;5067992;28;20631;-58
2021/12/24 05:44:10;;;;;;;28.80;15.50;;;;;;;;;;5067494;28;20180;-58
2021/12/24 05:46:37;;;;;;;23.03;16.03;;;;;;;;;;5066286;28;20204;-57
2021/12/24 05:49:04;;;;;;;20.47;15.93;;;;;;;;;;5068066;28;20197;-58
2021/12/24 05:51:30;;;;;;;21.00;14.90;;;;;;;;;;5069487;28;20239;-57
2021/12/24 05:53:56;;;;;;;19.70;16.23;;;;;;;;;;5052018;28;20598;-57
2021/12/24 05:56:23;;;;;;;23.00;16.20;;;;;;;;;;5069569;28;20200;-59
2021/12/24 05:58:49;;;;;;;20.03;14.90;;;;;;;;;;5069868;28;20230;-57
2021/12/24 06:01:16;;;;;;;19.90;15.17;;;;;;;;;;5066989;28;20177;-58
2021/12/24 06:03:42;;;;;;;18.20;14.03;;;;;;;;;;5051477;28;20187;-57
2021/12/24 06:06:08;;;;;;;23.07;16.43;;;;;;;;;;5070352;28;20286;-58
2021/12/24 06:08:34;;;;;;;24.17;16.00;;;;;;;;;;5068018;28;20666;-57
2021/12/24 06:11:01;;;;;;;22.00;15.73;;;;;;;;;;5050690;28;20207;-57
2021/12/24 06:13:29;;;;;;;25.53;16.27;;;;;;;;;;5050360;28;20212;-58
2021/12/24 06:15:55;;;;;;;24.17;15.40;;;;;;;;;;5067432;28;20714;-57
2021/12/24 06:18:27;;;;;;;22.50;15.73;;;;;;;;;;5057426;28;20260;-57
2021/12/24 06:20:54;;;;;;;21.03;15.23;;;;;;;;;;5068086;28;20168;-58
2021/12/24 06:23:22;;;;;;;22.70;15.33;;;;;;;;;;5049207;28;20177;-56
2021/12/24 06:25:49;;;;;;;22.47;15.10;;;;;;;;;;5069080;28;20420;-57
2021/12/24 06:28:16;;;;;;;22.83;16.07;;;;;;;;;;5059904;28;20271;-58
2021/12/24 06:30:42;;;;;;;22.70;15.80;;;;;;;;;;5053870;28;20538;-57
2021/12/24 06:33:11;;;;;;;22.47;16.20;;;;;;;;;;5066419;28;20545;-58
2021/12/24 06:35:38;;;;;;;23.97;16.03;;;;;;;;;;5050997;28;20199;-57
2021/12/24 06:38:05;;;;;;;21.87;14.80;;;;;;;;;;5041270;28;20555;-58
2021/12/24 06:40:32;;;;;;;22.10;16.37;;;;;;;;;;5049652;28;20223;-57
2021/12/24 06:42:59;;;;;;;28.47;17.30;;;;;;;;;;5049151;28;20241;-58
2021/12/24 06:45:25;;;;;;;24.13;17.20;;;;;;;;;;5067908;28;20561;-57
2021/12/24 06:47:52;;;;;;;20.37;15.90;;;;;;;;;;5067626;28;20208;-57
2021/12/24 06:50:19;;;;;;;25.37;15.87;;;;;;;;;;5051218;28;20216;-58
2021/12/24 06:52:46;;;;;;;25.53;16.20;;;;;;;;;;5063626;28;20239;-57
2021/12/24 06:55:13;;;;;;;21.60;15.43;;;;;;;;;;5050164;28;20534;-57
2021/12/24 06:57:40;;;;;;;25.07;15.67;;;;;;;;;;5067648;28;20204;-58
2021/12/24 07:00:07;;;;;;;23.23;16.27;;;;;;;;;;5067718;28;20176;-57
2021/12/24 07:02:33;;;;;;;23.17;15.87;;;;;;;;;;5068308;28;20176;-58
2021/12/24 07:05:03;;;;;;;21.50;15.53;;;;;;;;;;5047986;28;20299;-58
2021/12/24 07:07:30;;;;;;;23.97;16.33;;;;;;;;;;5048109;28;20226;-58
2021/12/24 07:09:56;;;;;;;22.57;15.63;;;;;;;;;;5049136;28;20188;-58
2021/12/24 07:12:22;;;;;;;20.60;15.00;;;;;;;;;;5067661;28;20264;-58
2021/12/24 07:14:49;;;;;;;20.57;14.53;;;;;;;;;;5033665;28;20659;-57
2021/12/24 07:17:16;;;;;;;20.30;15.33;;;;;;;;;;5067394;28;20183;-58
2021/12/24 07:19:42;;;;;;;24.50;14.77;;;;;;;;;;5067875;28;20539;-58
2021/12/24 07:22:09;;;;;;;21.67;13.83;;;;;;;;;;5050226;28;20169;-57
2021/12/24 07:24:36;;;;;;;25.77;14.13;;;;;;;;;;5060524;28;20721;-58
2021/12/24 07:27:03;;;;;;;22.90;15.00;;;;;;;;;;5068381;28;20195;-58
2021/12/24 07:29:29;;;;;;;21.90;14.57;;;;;;;;;;5048371;28;20180;-59
2021/12/24 07:31:56;;;;;;;21.43;14.07;;;;;;;;;;5049245;28;20589;-57
2021/12/24 07:34:22;;;;;;;22.73;15.00;;;;;;;;;;5038783;28;20663;-57
2021/12/24 07:36:48;;;;;;;21.80;14.43;;;;;;;;;;5059344;28;20646;-57
2021/12/24 07:39:17;;;;;;;17.80;13.70;;;;;;;;;;5071189;28;20195;-58
2021/12/24 07:41:44;;;;;;;21.37;14.53;;;;;;;;;;5064184;28;20568;-58
2021/12/24 07:44:10;;;;;;;21.87;15.87;;;;;;;;;;5060029;28;20570;-57
2021/12/24 07:46:43;;;;;;;20.50;14.67;;;;;;;;;;5067282;28;20646;-57
2021/12/24 07:50:00;;;;;;;20.17;13.27;;;;;;;;;;5061735;28;20312;-56
2021/12/24 07:54:27;;;;;;;21.37;15.17;;;;;;;;;;5086866;28;20191;-57
2021/12/24 07:56:53;;;;;;;17.17;13.13;;;;;;;;;;5081378;28;20207;-57
2021/12/24 07:59:20;;;;;;;21.30;14.03;;;;;;;;;;5065302;28;20188;-57
2021/12/24 08:01:47;;;;;;;19.07;14.23;;;;;;;;;;5039597;28;20190;-56
2021/12/24 08:04:15;;;;;;;19.43;14.20;;;;;;;;;;5070503;28;20555;-56
2021/12/24 08:06:41;;;;;;;21.13;13.57;;;;;;;;;;5049657;28;20296;-57
2021/12/24 08:09:08;;;;;;;21.37;13.67;;;;;;;;;;5083136;28;20180;-57
2021/12/24 08:11:35;;;;;;;20.40;13.40;;;;;;;;;;5060208;28;20677;-57
2021/12/24 08:14:01;;;;;;;24.83;14.07;;;;;;;;;;5083676;28;20411;-58
2021/12/24 08:16:29;;;;;;;21.27;14.63;;;;;;;;;;5086803;28;20213;-57
2021/12/24 08:18:58;;;;;;;17.30;12.87;;;;;;;;;;5086480;28;20197;-58
2021/12/24 08:21:25;;;;;;;18.83;12.90;;;;;;;;;;5073374;28;20336;-57
2021/12/24 08:23:51;;;;;;;18.53;13.60;;;;;;;;;;5069518;28;20661;-56
2021/12/24 08:26:19;;;;;;;20.10;13.30;;;;;;;;;;5086287;28;20207;-56
2021/12/24 08:28:45;;;;;;;19.40;13.47;;;;;;;;;;5086334;28;20215;-56
2021/12/24 08:31:11;;;;;;;19.13;14.13;;;;;;;;;;5082376;28;20175;-57
2021/12/24 08:33:38;;;;;;;21.60;13.73;;;;;;;;;;5065255;28;20183;-56
2021/12/24 08:36:05;;;;;;;22.87;13.13;;;;;;;;;;5058418;28;20237;-57
2021/12/24 08:38:32;;;;;;;22.37;13.47;;;;;;;;;;5067653;28;20172;-56
2021/12/24 08:40:58;;;;;;;17.23;14.77;;;;;;;;;;5069556;28;20249;-57
2021/12/24 08:43:25;;;;;;;22.07;13.57;;;;;;;;;;5067786;28;20183;-57
2021/12/24 08:45:51;;;;;;;18.93;13.77;;;;;;;;;;5068365;28;20332;-58
2021/12/24 08:48:20;;;;;;;17.93;12.50;;;;;;;;;;5067680;28;20186;-56
2021/12/24 08:50:47;;;;;;;27.13;13.00;;;;;;;;;;5087222;28;20207;-58
2021/12/24 08:53:13;;;;;;;20.27;12.73;;;;;;;;;;5067720;28;20221;-56
2021/12/24 08:55:40;;;;;;;23.07;14.40;;;;;;;;;;5068738;28;20186;-56
2021/12/24 08:58:06;;;;;;;18.97;13.50;;;;;;;;;;5067927;28;20712;-57
2021/12/24 09:00:33;;;;;;;17.07;12.83;;;;;;;;;;5056293;28;20211;-57
2021/12/24 09:03:01;;;;;;;18.50;12.67;;;;;;;;;;5062635;28;20180;-58
2021/12/24 09:05:29;;;;;;;18.30;13.97;;;;;;;;;;5057416;28;20245;-56
2021/12/24 09:07:55;;;;;;;21.10;13.53;;;;;;;;;;5072977;28;20183;-57
2021/12/24 09:10:22;;;;;;;19.57;12.57;;;;;;;;;;5088719;28;20167;-56
2021/12/24 09:12:49;;;;;;;18.90;13.57;;;;;;;;;;5079678;28;20541;-57
2021/12/24 09:15:16;;;;;;;23.53;13.60;;;;;;;;;;5096387;28;20653;-56
2021/12/24 09:17:45;;;;;;;21.67;13.13;;;;;;;;;;5098432;28;20179;-55
2021/12/24 09:20:17;;;;;;;20.17;13.47;;;;;;;;;;5096258;28;20205;-56
2021/12/24 09:22:44;;;;;;;19.13;12.57;;;;;;;;;;5065811;28;20183;-56
2021/12/24 09:25:11;;;;;;;18.93;13.60;;;;;;;;;;5083820;28;20198;-56
2021/12/24 09:27:37;;;;;;;19.13;12.87;;;;;;;;;;5058892;28;20179;-56
2021/12/24 09:30:04;;;;;;;17.80;13.23;;;;;;;;;;5081372;28;20168;-57
2021/12/24 09:32:31;;;;;;;21.27;12.90;;;;;;;;;;5065609;28;20634;-57
2021/12/24 09:34:58;;;;;;;17.90;14.27;;;;;;;;;;5063993;28;20187;-57
2021/12/24 09:37:24;;;;;;;18.83;13.63;;;;;;;;;;5085216;28;20208;-57
2021/12/24 09:39:51;;;;;;;18.07;13.40;;;;;;;;;;5066408;28;20214;-57
2021/12/24 09:42:17;;;;;;;20.13;12.57;;;;;;;;;;5085580;28;20589;-57
2021/12/24 09:44:43;;;;;;;18.17;13.50;;;;;;;;;;5081435;28;20317;-56
2021/12/24 09:47:10;;;;;;;21.37;13.47;;;;;;;;;;5086339;28;20207;-57
2021/12/24 09:49:36;;;;;;;19.00;12.87;;;;;;;;;;5067832;28;20176;-56
2021/12/24 09:52:07;;;;;;;25.10;14.33;;;;;;;;;;5046612;28;20265;-58
2021/12/24 09:54:34;;;;;;;29.33;15.10;;;;;;;;;;5068598;28;20537;-58
2021/12/24 09:57:01;;;;;;;24.43;15.50;;;;;;;;;;5052324;28;20204;-58
2021/12/24 09:59:28;;;;;;;25.80;14.83;;;;;;;;;;5067062;28;20180;-57
2021/12/24 10:02:01;;;;;;;24.50;14.57;;;;;;;;;;5087739;28;20175;-56
2021/12/24 10:04:29;;;;;;;25.63;13.77;;;;;;;;;;5071578;28;20248;-57
2021/12/24 10:07:06;;;;;;;20.13;13.53;;;;;;;;;;5072229;28;20208;-57
2021/12/24 10:09:35;;;;;;;25.87;15.50;;;;;;;;;;5063199;28;20194;-57
2021/12/24 10:12:06;;;;;;;22.10;14.03;;;;;;;;;;5072476;28;20597;-57
2021/12/24 10:14:33;;;;;;;22.37;14.67;;;;;;;;;;5077529;28;20557;-58
2021/12/24 10:17:01;;;;;;;26.50;13.73;;;;;;;;;;5068308;28;20341;-58
2021/12/24 10:19:28;;;;;;;22.37;13.67;;;;;;;;;;5062254;28;20222;-58
2021/12/24 10:21:59;;;;;;;19.47;13.70;;;;;;;;;;5054326;28;20375;-57
2021/12/24 10:24:26;;;;;;;26.57;16.00;;;;;;;;;;5053158;28;20615;-58
2021/12/24 10:26:54;;;;;;;21.73;14.17;;;;;;;;;;5068524;28;20242;-57
2021/12/24 10:29:31;;;;;;;20.03;13.90;;;;;;;;;;5069342;28;20452;-57
2021/12/24 10:31:58;;;;;;;20.33;14.80;;;;;;;;;;5035239;28;20279;-57
2021/12/24 10:34:27;;;;;;;23.53;14.97;;;;;;;;;;5089246;28;20184;-57
2021/12/24 10:36:58;;;;;;;23.60;13.80;;;;;;;;;;5062623;28;20196;-57
2021/12/24 10:39:33;;;;;;;21.57;12.70;;;;;;;;;;5075214;28;20232;-56
2021/12/24 10:42:00;;;;;;;23.00;13.43;;;;;;;;;;5049282;28;20183;-57
2021/12/24 10:44:28;;;;;;;21.63;12.60;;;;;;;;;;5068553;28;20242;-56
2021/12/24 10:47:17;;;;;;;25.00;13.90;;;;;;;;;;5032652;28;20207;-57
2021/12/24 10:50:30;;;;;;;27.20;13.77;;;;;;;;;;5049818;28;20256;-57
2021/12/24 10:55:15;;;;;;;21.37;13.10;;;;;;;;;;5050915;28;20586;-57
2021/12/24 10:57:43;;;;;;;21.83;13.90;;;;;;;;;;5063949;28;20205;-55
2021/12/24 11:00:23;;;;;;;24.60;14.57;;;;;;;;;;5068759;28;20507;-57
2021/12/24 11:03:01;;;;;;;18.40;11.90;;;;;;;;;;5065051;28;20673;-58
2021/12/24 11:05:33;;;;;;;22.57;13.10;;;;;;;;;;5060159;28;20246;-58
2021/12/24 11:08:01;;;;;;;20.80;13.23;;;;;;;;;;5050002;28;20181;-57
2021/12/24 11:10:29;;;;;;;21.30;13.93;;;;;;;;;;5065408;28;20181;-57
2021/12/24 11:12:57;;;;;;;25.30;13.97;;;;;;;;;;5068679;28;20639;-56
2021/12/24 11:15:26;;;;;;;30.77;14.53;;;;;;;;;;5066901;28;20620;-55
2021/12/24 11:17:53;;;;;;;19.37;12.70;;;;;;;;;;5045040;28;20176;-57
2021/12/24 11:20:20;;;;;;;21.73;12.73;;;;;;;;;;5068915;28;20227;-57
2021/12/24 11:22:50;;;;;;;25.13;14.33;;;;;;;;;;5068140;28;20188;-57
2021/12/24 11:25:17;;;;;;;20.10;12.47;;;;;;;;;;5067538;28;20211;-58
2021/12/24 11:27:46;;;;;;;18.93;11.23;;;;;;;;;;5047356;28;20177;-56
2021/12/24 11:30:14;;;;;;;26.50;13.60;;;;;;;;;;5064740;28;20182;-57
2021/12/24 11:32:41;;;;;;;18.37;12.17;;;;;;;;;;5064224;28;20184;-57
2021/12/24 11:35:07;;;;;;;20.90;12.90;;;;;;;;;;5048986;28;20181;-55
2021/12/24 11:37:34;;;;;;;25.23;13.60;;;;;;;;;;5067079;28;20184;-55
2021/12/24 11:40:02;;;;;;;18.07;11.80;;;;;;;;;;5051044;28;20267;-57
2021/12/24 11:42:33;;;;;;;20.70;12.07;;;;;;;;;;5045448;28;20192;-57
2021/12/24 11:45:01;;;;;;;16.80;10.93;;;;;;;;;;5018933;28;20164;-56
2021/12/24 11:47:27;;;;;;;17.33;11.90;;;;;;;;;;5068065;28;20176;-57
2021/12/24 11:49:53;;;;;;;20.40;12.43;;;;;;;;;;5049723;28;20231;-56
2021/12/24 11:52:19;;;;;;;21.03;11.07;;;;;;;;;;5079938;28;20261;-57
2021/12/24 11:54:46;;;;;;;15.83;11.20;;;;;;;;;;5068599;28;20176;-58
2021/12/24 11:57:23;;;;;;;18.20;10.70;;;;;;;;;;5036287;28;20204;-57
2021/12/24 11:59:52;;;;;;;18.97;10.20;;;;;;;;;;5050631;28;20706;-57
2021/12/24 12:02:46;;;;;;;18.60;12.10;;;;;;;;;;5065297;28;20295;-56
2021/12/24 12:05:17;;;;;;;16.87;10.93;;;;;;;;;;5048167;28;20234;-56
2021/12/24 12:07:44;;;;;;;21.80;11.63;;;;;;;;;;5048608;28;20185;-57
2021/12/24 12:10:10;;;;;;;19.60;11.53;;;;;;;;;;5050726;28;20551;-57
2021/12/24 12:12:41;;;;;;;27.60;11.33;;;;;;;;;;5050726;28;20518;-57
2021/12/24 12:15:27;;;;;;;17.90;11.33;;;;;;;;;;5065741;28;20215;-56
2021/12/24 12:17:55;;;;;;;19.20;11.43;;;;;;;;;;5064209;28;20180;-56
2021/12/24 12:20:44;;;;;;;19.37;12.60;;;;;;;;;;5049778;28;20185;-57
2021/12/24 12:23:18;;;;;;;21.60;11.80;;;;;;;;;;5049063;28;20640;-56
2021/12/24 12:25:44;;;;;;;21.70;14.10;;;;;;;;;;5048359;28;20403;-56
2021/12/24 12:28:14;;;;;;;23.10;13.27;;;;;;;;;;5049560;28;20184;-55
2021/12/24 12:30:47;;;;;;;22.27;13.00;;;;;;;;;;5058513;28;20172;-57
2021/12/24 12:33:15;;;;;;;18.23;11.73;;;;;;;;;;5048559;28;20540;-56
2021/12/24 12:35:41;;;;;;;21.03;14.37;;;;;;;;;;5051571;28;20214;-58
2021/12/24 12:38:25;;;;;;;22.60;13.07;;;;;;;;;;5039462;28;20229;-56
2021/12/24 12:40:51;;;;;;;22.87;13.30;;;;;;;;;;5051959;28;20379;-57
2021/12/24 12:43:18;;;;;;;23.73;14.90;;;;;;;;;;5053636;28;20473;-56
2021/12/24 12:45:47;;;;;;;27.67;15.53;;;;;;;;;;5067422;28;20219;-56
2021/12/24 12:48:26;;;;;;;37.63;16.43;;;;;;;;;;5067005;28;20631;-56
2021/12/24 12:51:00;;;;;;;31.77;16.63;;;;;;;;;;5070865;28;20207;-57
2021/12/24 12:53:27;;;;;;;29.10;15.77;;;;;;;;;;5073042;28;20176;-58
2021/12/24 12:56:13;;;;;;;28.70;16.30;;;;;;;;;;5048658;28;20230;-58
2021/12/24 12:58:40;;;;;;;34.63;16.93;;;;;;;;;;5065240;28;20421;-58
2021/12/24 13:01:14;;;;;;;22.13;14.67;;;;;;;;;;5070530;28;20237;-57
2021/12/24 13:04:10;;;;;;;29.13;14.90;;;;;;;;;;5065991;28;20182;-58
2021/12/24 13:06:38;;;;;;;22.23;15.73;;;;;;;;;;5064215;28;20678;-56
2021/12/24 13:09:20;;;;;;;28.47;15.73;;;;;;;;;;5069415;28;20182;-56
2021/12/24 13:11:48;;;;;;;21.50;15.00;;;;;;;;;;5052512;28;20689;-57
2021/12/24 13:14:15;;;;;;;26.60;15.37;;;;;;;;;;5070465;28;20181;-57
2021/12/24 13:16:49;;;;;;;27.20;15.67;;;;;;;;;;5050898;28;20192;-57
2021/12/24 13:22:27;;;;;;;26.57;15.00;;;;;;;;;;5071264;28;20176;-56
2021/12/24 13:25:00;;;;;;;22.30;14.13;;;;;;;;;;5071761;28;20176;-56
2021/12/24 13:27:29;;;;;;;28.80;18.97;;;;;;;;;;5077562;28;20431;-57
2021/12/24 13:30:05;;;;;;;20.20;15.03;;;;;;;;;;5065387;28;20180;-57
2021/12/24 13:32:32;;;;;;;25.67;17.80;;;;;;;;;;5071893;28;20771;-56
2021/12/24 13:34:58;;;;;;;21.87;15.33;;;;;;;;;;5070204;28;20219;-56
2021/12/24 13:37:30;;;;;;;25.70;14.80;;;;;;;;;;5073486;28;20192;-56
2021/12/24 13:39:56;;;;;;;24.83;17.63;;;;;;;;;;5064606;28;20912;-56
2021/12/24 13:42:23;;;;;;;24.03;15.90;;;;;;;;;;5084461;28;20271;-55
2021/12/24 13:44:50;;;;;;;21.03;13.83;;;;;;;;;;5066478;28;20185;-57
2021/12/24 13:47:26;;;;;;;20.33;14.47;;;;;;;;;;5053557;28;20634;-57
2021/12/24 13:55:25;;;;;;;19.87;13.77;;;;;;;;;;5069267;28;20199;-58
2021/12/24 13:57:56;;;;;;;21.57;14.47;;;;;;;;;;5053954;28;20289;-57
2021/12/24 14:00:23;;;;;;;24.37;14.20;;;;;;;;;;5051409;28;20198;-57
2021/12/24 14:03:02;;;;;;;23.07;13.30;;;;;;;;;;5046264;28;20196;-57
2021/12/24 14:05:28;;;;;;;17.33;13.30;;;;;;;;;;5065910;28;20212;-57
2021/12/24 14:08:05;;;;;;;21.80;13.83;;;;;;;;;;5051804;28;20177;-56
2021/12/24 14:10:31;;;;;;;24.13;13.03;;;;;;;;;;5068377;28;20183;-55
2021/12/24 14:13:05;;;;;;;25.20;14.40;;;;;;;;;;5052267;28;20550;-56
2021/12/24 14:15:32;;;;;;;16.07;13.20;;;;;;;;;;5051882;28;20314;-56
2021/12/24 14:18:18;;;;;;;18.90;13.53;;;;;;;;;;5049450;28;20267;-56
2021/12/24 14:21:45;;;;;;;26.73;14.07;;;;;;;;;;5066483;28;20194;-61
2021/12/24 14:23:46;;;;;;;21.87;14.87;;;;;;;;;;5061778;28;20572;-56
2021/12/24 14:26:13;;;;;;;20.33;14.20;;;;;;;;;;5051709;28;20193;-56
2021/12/24 14:28:52;;;;;;;21.83;14.33;;;;;;;;;;5051279;28;20544;-56
2021/12/24 14:31:18;;;;;;;20.70;14.47;;;;;;;;;;5051165;28;20603;-57
2021/12/24 14:33:48;;;;;;;20.03;14.30;;;;;;;;;;5068460;28;20187;-57
2021/12/24 14:36:18;;;;;;;22.50;14.70;;;;;;;;;;5033309;28;20210;-55
2021/12/24 14:38:44;;;;;;;20.30;13.93;;;;;;;;;;5049713;28;20207;-58
2021/12/24 14:41:16;;;;;;;27.23;15.83;;;;;;;;;;5069132;28;20176;-57
2021/12/24 14:43:42;;;;;;;19.07;13.70;;;;;;;;;;5067374;28;20208;-56
2021/12/24 14:46:12;;;;;;;21.70;14.67;;;;;;;;;;5050718;28;20690;-56
2021/12/24 14:48:38;;;;;;;22.97;14.20;;;;;;;;;;5043626;28;20200;-56
2021/12/24 14:51:06;;;;;;;24.80;15.17;;;;;;;;;;5066535;28;20240;-57
2021/12/24 14:53:33;;;;;;;21.80;14.63;;;;;;;;;;5045372;28;20165;-56
2021/12/24 14:56:16;;;;;;;21.53;15.23;;;;;;;;;;5054868;28;20200;-57
2021/12/24 14:58:43;;;;;;;24.37;15.03;;;;;;;;;;5050585;28;20255;-59
2021/12/24 15:01:16;;;;;;;49.15;20.67;;;;;;;;;;5059948;28;20408;-59
2021/12/24 15:03:43;;;;;;;38.57;18.67;;;;;;;;;;5068903;28;20181;-58
2021/12/24 15:06:20;;;;;;;30.90;17.57;;;;;;;;;;5063066;28;20724;-57
2021/12/24 15:08:47;;;;;;;28.70;16.77;;;;;;;;;;5048887;28;20172;-56
2021/12/24 15:11:18;;;;;;;31.37;17.90;;;;;;;;;;5067575;28;20180;-57
2021/12/24 15:13:46;;;;;;;38.00;18.43;;;;;;;;;;5041738;28;20283;-57
2021/12/24 15:16:16;;;;;;;30.33;16.33;;;;;;;;;;5048394;28;20177;-59
2021/12/24 15:18:43;;;;;;;28.27;17.57;;;;;;;;;;5048590;28;20172;-57
2021/12/24 15:21:09;;;;;;;33.00;16.57;;;;;;;;;;5049736;28;20627;-57
2021/12/24 15:23:36;;;;;;;26.73;16.47;;;;;;;;;;5059308;28;20208;-57
2021/12/24 15:26:02;;;;;;;28.27;15.73;;;;;;;;;;5058559;28;20280;-58
2021/12/24 15:28:28;;;;;;;23.50;16.03;;;;;;;;;;5061035;28;20181;-57
2021/12/24 15:30:55;;;;;;;28.83;16.53;;;;;;;;;;5068302;28;20206;-57
2021/12/24 15:33:22;;;;;;;22.27;15.13;;;;;;;;;;5066968;28;20195;-59
2021/12/24 15:35:50;;;;;;;29.63;15.97;;;;;;;;;;5066117;28;20199;-58
2021/12/24 15:38:17;;;;;;;25.30;15.60;;;;;;;;;;5050726;28;20184;-58
2021/12/24 15:40:47;;;;;;;22.10;16.57;;;;;;;;;;5068608;28;20179;-58
2021/12/24 15:43:16;;;;;;;21.00;14.53;;;;;;;;;;5062310;28;20204;-56
2021/12/24 15:45:43;;;;;;;21.03;14.47;;;;;;;;;;5066177;28;20683;-57
2021/12/24 15:48:09;;;;;;;19.67;14.97;;;;;;;;;;5041415;28;20172;-56
2021/12/24 15:50:36;;;;;;;24.47;14.97;;;;;;;;;;5050522;28;20172;-56
2021/12/24 15:53:06;;;;;;;22.70;15.03;;;;;;;;;;5048256;28;20250;-58
2021/12/24 15:55:36;;;;;;;20.67;14.37;;;;;;;;;;5066773;28;20176;-57
2021/12/24 15:58:03;;;;;;;20.33;14.27;;;;;;;;;;5070011;28;20657;-57
2021/12/24 16:00:34;;;;;;;19.97;14.07;;;;;;;;;;5055588;28;20187;-57
2021/12/24 16:03:00;;;;;;;23.00;15.77;;;;;;;;;;5071473;28;20245;-57
2021/12/24 16:05:26;;;;;;;22.53;13.63;;;;;;;;;;5050748;28;20732;-55
2021/12/24 16:07:52;;;;;;;20.17;14.33;;;;;;;;;;5067799;28;20171;-57